Time;durP1;ratioP1;P1;durP2;ratioP2;P2;SDS_P1;SDS_P2;PMS_P1;PMS_P2;Temp;Humidity;BMP_temperature;BMP_pressure;BME280_temperature;BME280_humidity;BME280_pressure;Samples;Min_cycle;Max_cycle;Signal;HPM_P1;HPM_P2
2021/03/31 00:00:24;;;;;;;11.30;8.07;;;9.40;99.90;;;;;;5020919;28;20653;-88
2021/03/31 00:02:52;;;;;;;11.00;8.30;;;9.40;99.90;;;;;;5025815;28;21113;-88
2021/03/31 00:05:18;;;;;;;9.73;8.27;;;9.40;99.90;;;;;;5030936;28;20619;-86
2021/03/31 00:07:45;;;;;;;10.83;8.40;;;9.20;99.90;;;;;;5035642;28;20638;-86
2021/03/31 00:10:25;;;;;;;11.23;8.80;;;9.20;99.90;;;;;;5025616;28;20650;-87
2021/03/31 00:12:51;;;;;;;9.53;8.63;;;9.10;99.90;;;;;;5032269;28;21209;-87
2021/03/31 00:15:18;;;;;;;9.93;8.60;;;9.10;99.90;;;;;;5026771;28;20663;-87
2021/03/31 00:17:45;;;;;;;10.30;7.93;;;9.00;99.90;;;;;;5029759;28;20662;-86
2021/03/31 00:20:14;;;;;;;9.87;8.87;;;8.90;99.90;;;;;;5022288;28;20666;-88
2021/03/31 00:22:40;;;;;;;9.37;8.40;;;8.90;99.90;;;;;;5015362;28;20692;-87
2021/03/31 00:25:09;;;;;;;10.77;9.47;;;8.90;99.90;;;;;;5012847;28;20631;-87
2021/03/31 00:27:36;;;;;;;8.57;7.53;;;8.80;99.90;;;;;;5011082;28;21005;-87
2021/03/31 00:30:05;;;;;;;9.13;8.23;;;8.80;99.90;;;;;;5015781;28;20646;-87
2021/03/31 00:32:31;;;;;;;9.13;8.23;;;8.80;99.90;;;;;;5016782;28;20615;-86
2021/03/31 00:34:57;;;;;;;10.40;9.43;;;8.80;99.90;;;;;;5011107;28;20662;-87
2021/03/31 00:37:24;;;;;;;9.97;9.03;;;8.70;99.90;;;;;;5013524;28;20953;-87
2021/03/31 00:39:50;;;;;;;11.37;10.17;;;8.70;99.90;;;;;;5014896;28;20650;-87
2021/03/31 00:42:16;;;;;;;9.47;8.50;;;8.60;99.90;;;;;;5013727;28;20628;-87
2021/03/31 00:44:43;;;;;;;9.67;8.67;;;8.60;99.90;;;;;;5016891;28;20689;-87
2021/03/31 00:47:10;;;;;;;9.57;8.67;;;8.50;99.90;;;;;;5010936;28;21264;-87
2021/03/31 00:49:36;;;;;;;12.40;8.20;;;8.50;99.90;;;;;;5012150;28;20650;-87
2021/03/31 00:52:03;;;;;;;10.93;9.83;;;8.60;99.90;;;;;;5010280;28;20623;-87
2021/03/31 00:54:30;;;;;;;11.53;8.03;;;8.50;99.90;;;;;;5009028;28;20678;-86
2021/03/31 00:56:56;;;;;;;10.80;8.97;;;8.50;99.90;;;;;;5009110;28;20627;-88
2021/03/31 00:59:22;;;;;;;10.50;9.57;;;8.50;99.90;;;;;;5010964;28;20640;-87
2021/03/31 01:01:50;;;;;;;10.50;9.50;;;8.40;99.90;;;;;;5021074;28;20615;-88
2021/03/31 01:04:16;;;;;;;10.17;9.13;;;8.30;99.90;;;;;;5008163;28;20595;-87
2021/03/31 01:06:42;;;;;;;9.73;8.73;;;8.30;99.90;;;;;;5014431;28;20630;-87
2021/03/31 01:09:09;;;;;;;12.37;8.77;;;8.30;99.90;;;;;;5004280;28;20647;-87
2021/03/31 01:11:43;;;;;;;8.97;8.17;;;8.20;99.90;;;;;;5011973;28;20630;-87
2021/03/31 01:14:16;;;;;;;11.03;9.33;;;8.20;99.90;;;;;;5006633;28;20671;-86
2021/03/31 01:16:49;;;;;;;9.67;8.77;;;8.20;99.90;;;;;;5007239;28;20662;-87
2021/03/31 01:19:49;;;;;;;9.73;8.80;;;8.10;99.90;;;;;;5009008;28;20608;-87
2021/03/31 01:23:09;;;;;;;9.40;8.20;;;8.20;99.90;;;;;;5004041;28;20619;-87
2021/03/31 01:25:37;;;;;;;13.07;9.30;;;8.10;99.90;;;;;;5011684;28;20624;-87
2021/03/31 01:28:36;;;;;;;11.00;8.73;;;8.00;99.90;;;;;;5017412;28;20631;-87
2021/03/31 01:31:09;;;;;;;9.27;8.20;;;8.00;99.90;;;;;;5011976;28;21012;-87
2021/03/31 01:34:08;;;;;;;10.63;9.53;;;8.00;99.90;;;;;;5015202;28;20677;-86
2021/03/31 01:36:35;;;;;;;10.20;8.63;;;7.90;99.90;;;;;;5014149;28;20612;-86
2021/03/31 01:39:05;;;;;;;11.03;8.73;;;7.90;99.90;;;;;;5007266;28;21092;-87
2021/03/31 01:41:33;;;;;;;15.73;9.60;;;7.90;99.90;;;;;;5013258;28;20739;-86
2021/03/31 01:44:01;;;;;;;9.37;8.47;;;7.90;99.90;;;;;;5009627;28;20638;-86
2021/03/31 01:46:30;;;;;;;9.30;8.33;;;7.80;99.90;;;;;;5015807;28;20695;-87
2021/03/31 01:49:01;;;;;;;11.40;8.80;;;7.80;99.90;;;;;;5009421;28;20614;-88
2021/03/31 01:51:29;;;;;;;9.93;8.90;;;7.80;99.90;;;;;;5012087;28;20648;-87
2021/03/31 01:53:57;;;;;;;8.33;7.63;;;7.80;99.90;;;;;;5011107;28;20632;-87
2021/03/31 01:56:26;;;;;;;10.50;9.50;;;7.80;99.90;;;;;;5010521;28;20632;-87
2021/03/31 01:58:53;;;;;;;9.87;8.90;;;7.70;99.90;;;;;;5012424;28;20954;-88
2021/03/31 02:01:21;;;;;;;8.70;7.80;;;7.60;99.90;;;;;;5010142;28;20662;-87
2021/03/31 02:03:51;;;;;;;11.20;8.70;;;7.60;99.90;;;;;;5016465;28;20635;-87
2021/03/31 02:06:18;;;;;;;12.10;8.53;;;7.60;99.90;;;;;;5013771;28;20632;-87
2021/03/31 02:08:47;;;;;;;10.13;9.10;;;7.60;99.90;;;;;;5006251;28;20632;-87
2021/03/31 02:11:16;;;;;;;11.80;8.97;;;7.70;99.90;;;;;;5012994;28;20650;-88
2021/03/31 02:13:45;;;;;;;9.90;8.97;;;7.60;99.90;;;;;;5019607;28;20642;-88
2021/03/31 02:16:12;;;;;;;10.30;9.13;;;7.60;99.90;;;;;;5017604;28;20616;-87
2021/03/31 02:18:39;;;;;;;8.90;8.10;;;7.50;99.90;;;;;;5015309;28;20634;-87
2021/03/31 02:21:06;;;;;;;8.67;7.97;;;7.50;99.90;;;;;;5015606;28;20655;-87
2021/03/31 02:23:35;;;;;;;10.90;8.77;;;7.50;99.90;;;;;;5015968;28;20643;-86
2021/03/31 02:26:02;;;;;;;9.33;8.43;;;7.40;99.90;;;;;;5012386;28;20623;-87
2021/03/31 02:28:30;;;;;;;11.07;9.07;;;7.40;99.90;;;;;;5011247;28;20715;-87
2021/03/31 02:30:57;;;;;;;12.27;9.93;;;7.40;99.90;;;;;;5006152;28;20667;-86
2021/03/31 02:33:25;;;;;;;9.17;8.20;;;7.40;99.90;;;;;;5011332;28;20635;-87
2021/03/31 02:35:52;;;;;;;9.50;7.90;;;7.30;99.90;;;;;;5013586;28;20673;-87
2021/03/31 02:38:18;;;;;;;9.90;8.90;;;7.20;99.90;;;;;;5007837;28;20607;-86
2021/03/31 02:40:46;;;;;;;9.80;8.87;;;7.20;99.90;;;;;;5018111;28;20665;-87
2021/03/31 02:43:15;;;;;;;9.97;8.97;;;7.20;99.90;;;;;;5008891;28;21067;-87
2021/03/31 02:45:46;;;;;;;10.40;9.30;;;7.10;99.90;;;;;;5013187;28;20694;-88
2021/03/31 02:48:14;;;;;;;10.67;9.67;;;7.10;99.90;;;;;;5013594;28;20627;-86
2021/03/31 02:50:42;;;;;;;10.50;8.57;;;7.00;99.90;;;;;;5014385;28;20662;-87
2021/03/31 02:53:10;;;;;;;8.93;8.03;;;6.90;99.90;;;;;;5010946;28;20620;-86
2021/03/31 02:55:38;;;;;;;9.77;8.83;;;6.80;99.90;;;;;;5008883;28;21837;-86
2021/03/31 02:58:06;;;;;;;9.10;8.07;;;6.80;99.90;;;;;;5015383;28;20626;-87
2021/03/31 03:00:34;;;;;;;9.93;8.77;;;6.70;99.90;;;;;;4998082;28;20656;-87
2021/03/31 03:03:02;;;;;;;9.50;8.70;;;6.70;99.90;;;;;;5007669;28;20655;-87
2021/03/31 03:05:28;;;;;;;10.20;9.20;;;6.70;99.90;;;;;;5011466;28;20599;-86
2021/03/31 03:07:55;;;;;;;9.80;8.80;;;6.70;99.90;;;;;;5009362;28;20616;-87
2021/03/31 03:10:22;;;;;;;8.70;7.80;;;6.80;99.90;;;;;;5005891;28;20652;-87
2021/03/31 03:12:51;;;;;;;9.73;8.63;;;6.70;99.90;;;;;;5001761;28;20636;-87
2021/03/31 03:15:20;;;;;;;9.40;8.57;;;6.60;99.90;;;;;;4999717;28;21057;-87
2021/03/31 03:17:46;;;;;;;9.63;8.67;;;6.60;99.90;;;;;;5002601;28;20611;-87
2021/03/31 03:20:15;;;;;;;10.07;8.10;;;6.60;99.90;;;;;;5006284;28;20674;-87
2021/03/31 03:22:44;;;;;;;10.10;8.80;;;6.60;99.90;;;;;;5007226;28;21245;-87
2021/03/31 03:25:13;;;;;;;9.13;8.30;;;6.50;99.90;;;;;;5007845;28;20620;-87
2021/03/31 03:27:45;;;;;;;9.90;8.27;;;6.50;99.90;;;;;;5007833;28;20643;-87
2021/03/31 03:30:16;;;;;;;10.93;8.83;;;6.30;99.90;;;;;;5009195;28;20648;-86
2021/03/31 03:32:45;;;;;;;10.13;8.67;;;6.30;99.90;;;;;;5007415;28;20694;-86
2021/03/31 03:35:14;;;;;;;12.23;8.60;;;6.30;99.90;;;;;;5008095;28;21145;-87
2021/03/31 03:37:43;;;;;;;12.00;8.33;;;6.30;99.90;;;;;;5008698;28;21217;-86
2021/03/31 03:40:13;;;;;;;11.63;9.00;;;6.30;99.90;;;;;;5003850;28;20683;-86
2021/03/31 03:42:39;;;;;;;11.30;8.30;;;6.30;99.90;;;;;;5006969;28;20639;-86
2021/03/31 03:45:07;;;;;;;9.50;8.10;;;6.20;99.90;;;;;;5002528;28;20626;-87
2021/03/31 03:47:33;;;;;;;10.30;8.47;;;6.20;99.90;;;;;;5011095;28;20640;-87
2021/03/31 03:50:00;;;;;;;9.63;8.30;;;6.20;99.90;;;;;;5004700;28;20667;-87
2021/03/31 03:52:28;;;;;;;12.90;10.00;;;6.10;99.90;;;;;;5009443;28;20982;-87
2021/03/31 03:54:56;;;;;;;9.13;8.30;;;6.00;99.90;;;;;;5009701;28;20648;-86
2021/03/31 03:57:23;;;;;;;14.80;9.23;;;6.00;99.90;;;;;;5010094;28;20643;-87
2021/03/31 03:59:51;;;;;;;14.93;8.93;;;6.00;99.90;;;;;;5008576;28;20735;-86
2021/03/31 04:02:18;;;;;;;12.33;11.13;;;6.10;99.90;;;;;;5011161;28;20634;-87
2021/03/31 04:04:44;;;;;;;11.17;9.53;;;6.10;99.90;;;;;;5019359;28;20621;-86
2021/03/31 04:07:11;;;;;;;10.20;9.30;;;6.10;99.90;;;;;;5011940;28;20627;-87
2021/03/31 04:09:40;;;;;;;10.40;9.37;;;6.10;99.90;;;;;;5008965;28;20673;-88
2021/03/31 04:12:09;;;;;;;10.33;9.27;;;6.10;99.90;;;;;;5010355;28;20631;-88
2021/03/31 04:14:38;;;;;;;10.20;9.20;;;6.10;99.90;;;;;;5010669;28;21007;-86
2021/03/31 04:17:06;;;;;;;13.50;10.33;;;6.00;99.90;;;;;;5015907;28;20639;-87
2021/03/31 04:19:34;;;;;;;11.70;10.50;;;6.10;99.90;;;;;;5017534;28;20635;-87
2021/03/31 04:22:01;;;;;;;12.00;9.33;;;6.10;99.90;;;;;;5008615;28;20653;-86
2021/03/31 04:24:27;;;;;;;12.77;9.60;;;6.00;99.90;;;;;;5017009;28;20616;-87
2021/03/31 04:26:55;;;;;;;11.20;10.10;;;5.90;99.90;;;;;;5016107;28;20635;-86
2021/03/31 04:29:22;;;;;;;11.17;10.03;;;5.90;99.90;;;;;;5010004;28;21099;-86
2021/03/31 04:31:49;;;;;;;11.03;10.03;;;5.90;99.90;;;;;;5009197;28;20684;-87
2021/03/31 04:34:16;;;;;;;11.13;10.13;;;6.00;99.90;;;;;;5013571;28;20713;-87
2021/03/31 04:36:43;;;;;;;10.03;9.03;;;6.00;99.90;;;;;;5012011;28;20769;-88
2021/03/31 04:39:09;;;;;;;10.67;9.53;;;6.00;99.90;;;;;;5015060;28;21203;-86
2021/03/31 04:41:35;;;;;;;11.00;9.90;;;6.00;99.90;;;;;;5015893;28;20634;-87
2021/03/31 04:44:04;;;;;;;10.43;9.40;;;6.00;99.90;;;;;;5011004;28;20692;-87
2021/03/31 04:46:30;;;;;;;11.57;8.77;;;5.90;99.90;;;;;;5013654;28;20628;-88
2021/03/31 04:48:56;;;;;;;12.13;8.30;;;5.90;99.90;;;;;;5012852;28;20984;-87
2021/03/31 04:51:23;;;;;;;10.03;9.03;;;5.90;99.90;;;;;;5013666;28;20655;-87
2021/03/31 04:53:49;;;;;;;11.00;9.23;;;6.00;99.90;;;;;;5015800;28;20627;-86
2021/03/31 04:56:15;;;;;;;10.50;8.87;;;6.00;99.90;;;;;;5007000;28;21155;-87
2021/03/31 04:58:41;;;;;;;10.77;9.67;;;5.90;99.90;;;;;;5014489;28;21215;-88
2021/03/31 05:01:09;;;;;;;25.17;8.93;;;5.90;99.90;;;;;;5010821;28;20639;-87
2021/03/31 05:03:35;;;;;;;10.53;8.50;;;5.90;99.90;;;;;;5013616;28;20695;-87
2021/03/31 05:06:01;;;;;;;16.03;9.53;;;5.90;99.90;;;;;;5014684;28;20650;-87
2021/03/31 05:08:27;;;;;;;13.53;8.93;;;5.90;99.90;;;;;;5017792;28;20628;-87
2021/03/31 05:10:54;;;;;;;10.40;9.13;;;5.90;99.90;;;;;;5011312;28;20655;-87
2021/03/31 05:13:20;;;;;;;10.27;9.20;;;5.90;99.90;;;;;;5007026;28;20974;-87
2021/03/31 05:15:46;;;;;;;12.63;10.03;;;5.80;99.90;;;;;;5016116;28;20674;-88
2021/03/31 05:18:14;;;;;;;11.93;9.80;;;5.90;99.90;;;;;;5017021;28;21158;-86
2021/03/31 05:20:41;;;;;;;9.60;8.80;;;6.00;99.90;;;;;;5014369;28;20655;-86
2021/03/31 05:23:07;;;;;;;13.70;9.10;;;6.00;99.90;;;;;;5009916;28;20702;-86
2021/03/31 05:25:33;;;;;;;10.47;9.03;;;6.00;99.90;;;;;;5013841;28;20983;-86
2021/03/31 05:28:00;;;;;;;17.57;8.37;;;6.00;99.90;;;;;;5016712;28;21018;-86
2021/03/31 05:30:27;;;;;;;14.17;8.63;;;6.00;99.90;;;;;;5010424;28;20663;-87
2021/03/31 05:32:53;;;;;;;10.30;8.03;;;6.00;99.90;;;;;;5017558;28;20657;-86
2021/03/31 05:35:20;;;;;;;10.13;9.00;;;6.00;99.90;;;;;;5010879;28;20668;-88
2021/03/31 05:37:47;;;;;;;15.17;10.40;;;6.00;99.90;;;;;;5011315;28;21048;-86
2021/03/31 05:40:15;;;;;;;12.73;8.83;;;6.00;99.90;;;;;;5012874;28;20643;-87
2021/03/31 05:42:42;;;;;;;10.87;9.77;;;6.10;99.90;;;;;;5011385;28;20627;-87
2021/03/31 05:45:10;;;;;;;12.00;9.23;;;6.10;99.90;;;;;;5015526;28;20627;-88
2021/03/31 05:47:39;;;;;;;11.30;9.77;;;6.30;99.90;;;;;;5009166;28;20735;-87
2021/03/31 05:50:07;;;;;;;12.20;10.03;;;6.30;99.90;;;;;;5013403;28;20685;-87
2021/03/31 05:52:35;;;;;;;11.10;10.10;;;6.40;99.90;;;;;;5015040;28;20632;-86
2021/03/31 05:55:02;;;;;;;13.67;10.03;;;6.50;99.90;;;;;;5009796;28;21189;-87
2021/03/31 05:57:31;;;;;;;15.53;8.90;;;6.50;99.90;;;;;;5011539;28;20678;-87
2021/03/31 05:59:58;;;;;;;11.53;9.37;;;6.60;99.90;;;;;;5018527;28;20738;-87
2021/03/31 06:02:25;;;;;;;14.07;9.53;;;6.50;99.90;;;;;;5026851;28;20631;-88
2021/03/31 06:04:51;;;;;;;11.93;9.73;;;6.60;99.90;;;;;;5020547;28;20663;-87
2021/03/31 06:07:18;;;;;;;11.00;9.50;;;6.70;99.90;;;;;;5014064;28;21177;-86
2021/03/31 06:10:06;;;;;;;13.57;10.00;;;6.70;99.90;;;;;;5018183;28;20721;-87
2021/03/31 06:12:36;;;;;;;10.73;9.53;;;6.80;99.90;;;;;;5011116;28;21253;-87
2021/03/31 06:15:20;;;;;;;10.43;9.40;;;6.80;99.90;;;;;;5006922;28;20778;-86
2021/03/31 06:17:50;;;;;;;11.83;9.20;;;6.90;99.90;;;;;;5010897;28;20631;-87
2021/03/31 06:20:36;;;;;;;11.03;9.80;;;7.00;99.90;;;;;;5009905;28;20710;-87
2021/03/31 06:23:13;;;;;;;10.77;9.70;;;7.10;99.90;;;;;;5009475;28;21176;-87
2021/03/31 06:25:54;;;;;;;10.73;8.83;;;7.30;99.90;;;;;;4998453;28;21187;-88
2021/03/31 06:28:32;;;;;;;10.80;8.67;;;7.40;99.90;;;;;;4999020;28;20657;-87
2021/03/31 06:31:10;;;;;;;12.13;9.20;;;7.40;99.90;;;;;;5009004;28;20656;-87
2021/03/31 06:33:38;;;;;;;10.50;8.40;;;7.60;99.90;;;;;;5009096;28;21318;-87
2021/03/31 06:36:10;;;;;;;10.90;9.43;;;7.60;99.90;;;;;;5009992;28;21385;-88
2021/03/31 06:38:39;;;;;;;10.67;9.57;;;7.80;99.90;;;;;;5003306;28;20632;-89
2021/03/31 06:41:18;;;;;;;13.90;9.70;;;7.90;99.90;;;;;;5003964;28;20654;-86
2021/03/31 06:44:15;;;;;;;12.60;9.30;;;8.10;99.90;;;;;;5012294;28;21060;-87
2021/03/31 06:46:49;;;;;;;12.77;9.07;;;8.30;99.90;;;;;;5007508;28;20963;-87
2021/03/31 06:49:15;;;;;;;10.27;8.97;;;8.50;99.90;;;;;;5010378;28;20974;-89
2021/03/31 06:51:42;;;;;;;15.33;9.70;;;8.60;99.90;;;;;;5009593;28;20634;-88
2021/03/31 06:54:19;;;;;;;11.43;8.70;;;8.60;99.90;;;;;;5010540;28;20698;-86
2021/03/31 06:56:56;;;;;;;14.27;9.17;;;8.70;99.90;;;;;;5011619;28;21294;-87
2021/03/31 06:59:28;;;;;;;12.83;9.27;;;8.80;99.90;;;;;;5010801;28;20603;-87
2021/03/31 07:01:57;;;;;;;10.10;9.10;;;8.80;99.90;;;;;;5014078;28;20634;-88
2021/03/31 07:04:26;;;;;;;13.60;8.83;;;8.90;99.90;;;;;;5016707;28;20703;-87
2021/03/31 07:07:02;;;;;;;11.17;8.73;;;8.90;99.90;;;;;;5014704;28;20963;-87
2021/03/31 07:09:33;;;;;;;11.40;8.90;;;9.10;99.90;;;;;;5008544;28;20603;-87
2021/03/31 07:12:01;;;;;;;13.50;9.10;;;9.30;99.90;;;;;;5008777;28;21027;-87
2021/03/31 07:14:30;;;;;;;10.80;8.97;;;9.40;99.90;;;;;;5013785;28;20687;-87
2021/03/31 07:16:59;;;;;;;10.67;8.90;;;9.70;99.90;;;;;;5009748;28;20674;-87
2021/03/31 07:19:26;;;;;;;10.40;9.40;;;9.80;99.90;;;;;;5011276;28;20607;-87
2021/03/31 07:21:57;;;;;;;11.13;10.03;;;9.90;99.90;;;;;;5014993;28;21052;-87
2021/03/31 07:24:23;;;;;;;13.90;8.43;;;10.10;99.90;;;;;;5020726;28;20592;-87
2021/03/31 07:26:50;;;;;;;15.77;9.20;;;10.30;99.90;;;;;;5017942;28;20592;-87
2021/03/31 07:29:18;;;;;;;11.60;9.07;;;10.40;99.90;;;;;;5014117;28;20987;-87
2021/03/31 07:31:47;;;;;;;11.10;8.70;;;10.50;99.90;;;;;;5008140;28;20663;-88
2021/03/31 07:34:18;;;;;;;13.10;8.80;;;10.80;99.90;;;;;;5014236;28;20715;-88
2021/03/31 07:36:48;;;;;;;9.43;8.40;;;10.80;99.90;;;;;;5011055;28;20647;-87
2021/03/31 07:39:17;;;;;;;11.67;8.67;;;11.00;99.80;;;;;;5009777;28;20630;-88
2021/03/31 07:41:44;;;;;;;9.57;8.10;;;11.00;99.70;;;;;;5009460;28;20757;-87
2021/03/31 07:44:16;;;;;;;11.23;8.17;;;11.00;98.70;;;;;;5007309;28;21291;-87
2021/03/31 07:46:45;;;;;;;11.10;8.37;;;11.10;99.00;;;;;;5005897;28;20643;-87
2021/03/31 07:49:12;;;;;;;10.23;8.50;;;11.30;98.20;;;;;;5013197;28;20689;-87
2021/03/31 07:51:55;;;;;;;10.27;8.53;;;11.50;98.20;;;;;;5010967;28;20637;-87
2021/03/31 07:54:21;;;;;;;15.17;8.57;;;11.80;98.00;;;;;;5007028;28;20628;-87
2021/03/31 07:56:48;;;;;;;9.87;8.47;;;12.00;97.50;;;;;;5005167;28;20630;-87
2021/03/31 07:59:17;;;;;;;12.23;8.67;;;12.20;96.80;;;;;;5006650;28;21198;-88
2021/03/31 08:01:47;;;;;;;8.47;7.03;;;12.50;96.60;;;;;;5007601;28;20635;-87
2021/03/31 08:04:15;;;;;;;15.37;8.77;;;12.60;95.90;;;;;;5009331;28;20635;-87
2021/03/31 08:06:43;;;;;;;9.73;7.37;;;12.60;95.90;;;;;;5011786;28;20623;-89
2021/03/31 08:09:10;;;;;;;9.70;7.60;;;12.60;95.90;;;;;;5001817;28;20631;-87
2021/03/31 08:11:58;;;;;;;12.17;8.00;;;12.60;95.80;;;;;;5004427;28;20634;-86
2021/03/31 08:14:43;;;;;;;9.30;8.40;;;12.60;95.90;;;;;;5008497;28;20670;-88
2021/03/31 08:17:12;;;;;;;10.67;8.20;;;12.80;95.60;;;;;;5006394;28;20631;-88
2021/03/31 08:19:41;;;;;;;11.60;8.60;;;13.00;95.50;;;;;;5006862;28;21015;-87
2021/03/31 08:22:23;;;;;;;9.20;7.87;;;13.10;95.00;;;;;;5013079;28;20685;-88
2021/03/31 08:24:54;;;;;;;8.40;7.10;;;13.40;94.90;;;;;;5007658;28;20658;-88
2021/03/31 08:27:21;;;;;;;12.13;8.53;;;13.60;94.30;;;;;;5016724;28;20710;-88
2021/03/31 08:29:53;;;;;;;13.40;8.60;;;13.80;94.30;;;;;;5010155;28;21167;-88
2021/03/31 08:32:21;;;;;;;8.73;7.43;;;13.80;93.90;;;;;;5008552;28;20630;-88
2021/03/31 08:34:48;;;;;;;13.40;8.53;;;13.90;93.60;;;;;;5011428;28;20777;-88
2021/03/31 08:37:24;;;;;;;9.90;7.70;;;13.80;93.60;;;;;;5010025;28;20639;-87
2021/03/31 08:39:51;;;;;;;11.70;8.93;;;13.90;93.60;;;;;;5014696;28;20649;-87
2021/03/31 08:42:19;;;;;;;9.20;8.30;;;14.10;93.50;;;;;;5019131;28;21143;-88
2021/03/31 08:44:50;;;;;;;7.63;6.93;;;14.20;93.20;;;;;;5017377;28;20636;-88
2021/03/31 08:47:19;;;;;;;9.33;8.27;;;14.30;93.10;;;;;;5008659;28;20767;-89
2021/03/31 08:49:48;;;;;;;12.20;8.43;;;14.50;93.00;;;;;;5010425;28;20685;-88
2021/03/31 08:52:17;;;;;;;10.77;7.93;;;14.70;92.50;;;;;;5010225;28;20619;-87
2021/03/31 08:54:46;;;;;;;9.77;8.87;;;14.70;92.40;;;;;;5006061;28;20882;-89
2021/03/31 08:57:15;;;;;;;9.60;8.60;;;14.70;92.40;;;;;;5002223;28;20728;-88
2021/03/31 08:59:43;;;;;;;11.40;8.40;;;14.90;92.20;;;;;;5009933;28;20619;-88
2021/03/31 09:02:10;;;;;;;12.20;8.50;;;15.20;92.00;;;;;;5005289;28;20635;-90
2021/03/31 09:04:37;;;;;;;14.13;9.80;;;15.40;91.10;;;;;;5007815;28;20647;-90
2021/03/31 09:07:09;;;;;;;9.53;7.53;;;15.70;90.80;;;;;;5004858;28;20742;-88
2021/03/31 09:09:37;;;;;;;10.97;7.87;;;15.80;90.70;;;;;;5009427;28;21053;-89
2021/03/31 09:12:06;;;;;;;16.03;8.30;;;15.80;90.90;;;;;;5004569;28;20714;-89
2021/03/31 09:14:34;;;;;;;9.93;8.83;;;16.10;90.30;;;;;;5013936;28;20660;-89
2021/03/31 09:17:04;;;;;;;12.60;9.90;;;16.50;90.00;;;;;;5009360;28;20708;-89
2021/03/31 09:19:34;;;;;;;10.60;9.07;;;16.70;88.00;;;;;;5006236;28;20655;-90
2021/03/31 09:22:07;;;;;;;13.80;9.70;;;16.70;87.60;;;;;;5008034;28;20600;-90
2021/03/31 09:24:33;;;;;;;10.30;9.10;;;16.80;86.90;;;;;;5007032;28;20650;-89
2021/03/31 09:27:02;;;;;;;16.70;9.43;;;17.00;87.30;;;;;;5008313;28;20682;-89
2021/03/31 09:29:29;;;;;;;13.77;9.20;;;17.10;85.70;;;;;;5005219;28;20645;-90
2021/03/31 09:31:57;;;;;;;10.77;8.67;;;17.40;84.20;;;;;;5005393;28;20632;-89
2021/03/31 09:34:24;;;;;;;13.33;8.83;;;17.40;83.40;;;;;;5006785;28;21207;-89
2021/03/31 09:36:58;;;;;;;12.30;8.50;;;17.60;83.40;;;;;;5005174;28;20983;-89
2021/03/31 09:39:41;;;;;;;12.30;9.33;;;17.60;83.50;;;;;;5010774;28;20630;-90
2021/03/31 09:42:09;;;;;;;16.47;10.50;;;17.80;82.20;;;;;;5003723;28;20620;-90
2021/03/31 09:44:37;;;;;;;9.97;8.63;;;18.00;81.90;;;;;;5003063;28;20670;-90
2021/03/31 09:47:04;;;;;;;17.60;8.40;;;18.30;81.20;;;;;;5004233;28;20675;-91
2021/03/31 09:49:30;;;;;;;14.13;10.20;;;18.30;81.70;;;;;;5002535;28;20635;-91
2021/03/31 09:51:56;;;;;;;11.93;8.80;;;18.60;80.20;;;;;;5013040;28;20659;-89
2021/03/31 09:54:28;;;;;;;11.33;8.47;;;18.80;78.90;;;;;;5012016;28;20624;-90
2021/03/31 09:56:56;;;;;;;12.90;8.80;;;18.90;78.60;;;;;;5007797;28;20743;-90
2021/03/31 09:59:23;;;;;;;10.20;7.70;;;19.30;77.80;;;;;;5004809;28;20638;-89
2021/03/31 10:01:50;;;;;;;10.40;8.70;;;19.40;77.10;;;;;;5007669;28;20650;-89
2021/03/31 10:04:18;;;;;;;11.13;9.10;;;19.80;78.00;;;;;;5003108;28;20631;-91
2021/03/31 10:06:44;;;;;;;13.17;7.83;;;19.90;75.20;;;;;;5010586;28;20770;-90
2021/03/31 10:09:17;;;;;;;11.77;9.43;;;20.10;73.70;;;;;;5010062;28;20627;-92
2021/03/31 10:11:46;;;;;;;11.00;9.00;;;20.30;73.80;;;;;;5005355;28;20658;-90
2021/03/31 10:14:21;;;;;;;11.83;10.43;;;20.40;72.80;;;;;;5005691;28;20628;-90
2021/03/31 10:16:48;;;;;;;14.10;8.80;;;20.70;70.60;;;;;;5007758;28;20666;-90
2021/03/31 10:19:15;;;;;;;13.33;9.00;;;21.20;70.10;;;;;;5006541;28;20606;-90
2021/03/31 10:21:42;;;;;;;13.87;9.00;;;21.30;68.80;;;;;;5006776;28;20965;-90
2021/03/31 10:24:13;;;;;;;13.80;8.93;;;21.50;68.80;;;;;;5007635;28;20979;-90
2021/03/31 10:26:47;;;;;;;11.60;9.53;;;21.70;67.00;;;;;;4999569;28;20661;-88
2021/03/31 10:29:23;;;;;;;10.70;9.30;;;21.90;67.30;;;;;;5006619;28;20710;-89
2021/03/31 10:31:50;;;;;;;12.07;9.87;;;22.30;64.80;;;;;;5017040;28;20681;-89
2021/03/31 10:34:18;;;;;;;13.60;8.90;;;22.40;62.10;;;;;;5011979;28;20722;-89
2021/03/31 10:37:03;;;;;;;10.57;9.47;;;22.50;62.00;;;;;;5008887;28;20655;-89
2021/03/31 10:51:22;;;;;;;11.10;7.90;;;22.90;53.50;;;;;;4992002;28;21846;-92
2021/03/31 10:53:54;;;;;;;11.70;7.13;;;23.40;53.60;;;;;;5008067;28;20663;-90
2021/03/31 10:56:24;;;;;;;11.23;8.37;;;23.60;53.00;;;;;;5012707;28;20686;-90
2021/03/31 10:58:54;;;;;;;10.80;7.50;;;23.80;52.10;;;;;;5010381;28;20761;-90
2021/03/31 11:01:21;;;;;;;11.40;8.50;;;23.90;51.40;;;;;;5012123;28;20719;-89
2021/03/31 11:03:47;;;;;;;8.50;7.70;;;23.90;51.90;;;;;;5011692;28;20615;-90
2021/03/31 11:06:15;;;;;;;9.30;8.43;;;24.20;50.10;;;;;;5014458;28;20666;-90
2021/03/31 11:08:41;;;;;;;12.67;8.43;;;24.30;50.40;;;;;;5014211;28;20666;-92
2021/03/31 11:11:11;;;;;;;8.17;7.37;;;24.80;50.30;;;;;;5015059;28;21268;-90
2021/03/31 11:13:38;;;;;;;11.07;9.40;;;24.90;49.50;;;;;;5012195;28;20624;-91
2021/03/31 11:16:08;;;;;;;10.53;8.17;;;25.30;48.50;;;;;;5011061;28;20702;-90
2021/03/31 11:18:48;;;;;;;9.47;8.47;;;25.10;47.90;;;;;;5012786;28;20695;-90
2021/03/31 11:26:39;;;;;;;9.43;7.23;;;25.60;45.40;;;;;;5017169;28;20649;-91
2021/03/31 11:29:05;;;;;;;8.67;7.40;;;25.80;43.50;;;;;;5006656;28;20702;-91
2021/03/31 11:31:32;;;;;;;9.80;8.30;;;26.00;44.30;;;;;;5008607;28;20620;-92
2021/03/31 11:34:00;;;;;;;7.30;6.70;;;26.50;43.70;;;;;;5009476;28;21560;-92
2021/03/31 11:36:27;;;;;;;9.33;7.73;;;26.80;42.00;;;;;;5012944;28;20676;-92
2021/03/31 11:38:53;;;;;;;9.13;7.57;;;26.40;39.90;;;;;;5010708;28;20617;-91
2021/03/31 11:41:22;;;;;;;8.47;7.63;;;26.10;38.50;;;;;;5010284;28;21139;-91
2021/03/31 11:43:48;;;;;;;8.37;7.57;;;26.40;38.00;;;;;;5009581;28;20742;-91
2021/03/31 11:46:15;;;;;;;7.37;6.67;;;26.70;37.10;;;;;;5008977;28;21117;-92
2021/03/31 11:48:41;;;;;;;6.70;6.20;;;26.40;36.50;;;;;;5011202;28;20620;-91
2021/03/31 11:51:08;;;;;;;7.13;6.53;;;26.70;36.20;;;;;;5010998;28;20635;-91
2021/03/31 11:53:34;;;;;;;8.60;7.50;;;27.50;36.20;;;;;;5011629;28;20627;-92
2021/03/31 11:56:01;;;;;;;7.93;7.10;;;27.60;34.90;;;;;;5011155;28;20667;-91
2021/03/31 11:58:27;;;;;;;7.87;7.07;;;27.80;34.80;;;;;;5011626;28;20663;-91
2021/03/31 12:00:53;;;;;;;8.93;7.43;;;28.00;34.80;;;;;;5006902;28;20636;-91
2021/03/31 12:03:21;;;;;;;8.57;7.77;;;28.50;35.10;;;;;;5012055;28;20634;-92
2021/03/31 12:05:48;;;;;;;13.50;9.10;;;28.70;35.70;;;;;;5013070;28;21221;-92
2021/03/31 12:08:15;;;;;;;10.13;9.10;;;28.80;35.00;;;;;;5010586;28;20631;-92
2021/03/31 12:10:42;;;;;;;13.50;9.40;;;28.80;35.20;;;;;;5006225;28;20632;-92
2021/03/31 12:13:08;;;;;;;10.17;9.27;;;28.80;35.40;;;;;;5007973;28;20654;-91
2021/03/31 12:15:34;;;;;;;10.67;9.60;;;28.50;34.60;;;;;;5015854;28;21245;-92
2021/03/31 12:18:01;;;;;;;11.10;10.17;;;28.40;34.80;;;;;;5011672;28;20652;-92
2021/03/31 12:20:29;;;;;;;11.83;9.97;;;28.40;34.80;;;;;;5010230;28;20620;-93
2021/03/31 12:22:55;;;;;;;10.90;9.90;;;28.10;35.00;;;;;;5013311;28;20611;-92
2021/03/31 12:25:23;;;;;;;10.50;9.50;;;28.70;34.60;;;;;;5008146;28;21302;-91
2021/03/31 12:27:54;;;;;;;8.53;7.63;;;29.10;34.20;;;;;;5012427;28;20666;-91
2021/03/31 12:30:22;;;;;;;9.07;8.17;;;28.70;31.80;;;;;;5007963;28;20583;-90
2021/03/31 12:32:50;;;;;;;10.97;9.97;;;28.90;32.50;;;;;;5007010;28;20623;-91
2021/03/31 12:35:16;;;;;;;10.53;8.90;;;29.20;33.30;;;;;;5007451;28;20655;-91
2021/03/31 12:37:42;;;;;;;18.30;8.53;;;29.20;32.80;;;;;;5005390;28;21317;-90
2021/03/31 12:40:10;;;;;;;9.67;8.77;;;29.70;32.60;;;;;;5011420;28;20632;-90
2021/03/31 12:42:38;;;;;;;10.50;9.23;;;29.60;31.80;;;;;;5010638;28;20646;-90
2021/03/31 12:45:05;;;;;;;8.37;7.30;;;30.50;31.60;;;;;;5008249;28;21158;-90
2021/03/31 12:47:34;;;;;;;7.87;7.17;;;30.40;29.50;;;;;;5013250;28;20686;-90
2021/03/31 12:50:00;;;;;;;7.73;6.93;;;30.20;28.90;;;;;;5007644;28;20642;-90
2021/03/31 12:52:29;;;;;;;12.07;8.67;;;30.70;29.20;;;;;;5007431;28;20627;-90
2021/03/31 12:55:00;;;;;;;13.93;9.30;;;31.00;30.00;;;;;;5006053;28;21011;-90
2021/03/31 12:57:26;;;;;;;10.27;9.20;;;30.60;30.60;;;;;;5016282;28;20662;-91
2021/03/31 12:59:54;;;;;;;9.90;9.03;;;30.90;31.10;;;;;;5013691;28;21263;-91
2021/03/31 13:02:22;;;;;;;12.03;10.10;;;30.70;30.20;;;;;;5008731;28;20627;-90
2021/03/31 13:04:48;;;;;;;12.40;10.40;;;31.20;31.50;;;;;;5012590;28;21227;-92
2021/03/31 13:07:15;;;;;;;11.13;10.20;;;31.40;31.20;;;;;;5012965;28;20674;-92
2021/03/31 13:09:41;;;;;;;13.97;11.00;;;31.30;30.30;;;;;;5019067;28;20628;-94
2021/03/31 13:12:17;;;;;;;10.20;9.20;;;31.20;30.30;;;;;;5017652;28;20623;-94